< < Back
Terminal Aerodrome Forecast


Current Version              Previous Versions:   1  2  3  4  5  6  7  8  9  

Terminal Aerodrome Forecast

427
FTUS42 KILM 290500
TAFILM
TAF
KILM 290520Z 2906/3006 24004KT P6SM SKC
     FM291700 14008KT P6SM FEW060
     FM300100 12004KT P6SM FEW020=

Latest METAR

966
SAUS70 KWBC 291000 RRG
MTRILM
METAR KILM 290953Z AUTO 21003KT 10SM FEW060 23/21 A3005 RMK AO2 SLP175
T02280206


USA.gov is the U.S. government's official web portal to all federal, state and local government web resources and services.